createdAt,value
2023-04-04T00:02:10.565Z,98756.81
2023-04-04T00:04:43.563Z,98762.00
2023-04-04T00:07:17.958Z,98757.44
2023-04-04T00:09:50.937Z,98755.75
2023-04-04T00:12:26.675Z,98752.25
2023-04-04T00:15:01.492Z,98745.81
2023-04-04T00:17:34.489Z,98748.97
2023-04-04T00:20:09.228Z,98739.06
2023-04-04T00:22:43.589Z,98736.53
2023-04-04T00:25:16.748Z,98734.97
2023-04-04T00:27:49.766Z,98733.75
2023-04-04T00:30:22.835Z,98734.00
2023-04-04T00:32:56.301Z,98730.81
2023-04-04T00:35:29.512Z,98738.19
2023-04-04T00:38:04.055Z,98727.81
2023-04-04T00:40:43.241Z,98734.13
2023-04-04T00:43:17.278Z,98732.16
2023-04-04T00:45:51.636Z,98729.47
2023-04-04T00:48:24.875Z,98726.25
2023-04-04T00:50:57.914Z,98717.38
2023-04-04T00:53:32.328Z,98721.69
2023-04-04T00:56:05.646Z,98713.69
2023-04-04T00:58:38.839Z,98718.53
2023-04-04T01:01:12.084Z,98713.50
2023-04-04T01:03:45.381Z,98709.56
2023-04-04T01:06:18.538Z,98709.38
2023-04-04T01:08:54.119Z,98718.16
2023-04-04T01:11:28.262Z,98702.41
2023-04-04T01:14:01.323Z,98700.22
2023-04-04T01:16:35.917Z,98695.91
2023-04-04T01:19:18.614Z,98692.34
2023-04-04T01:21:53.858Z,98695.09
2023-04-04T01:24:34.800Z,98694.25
2023-04-04T01:27:09.623Z,98696.31
2023-04-04T01:29:42.635Z,98691.44
2023-04-04T01:32:22.208Z,98687.88
2023-04-04T01:35:02.607Z,98686.50
2023-04-04T01:37:39.981Z,98678.63
2023-04-04T01:40:19.159Z,98686.91
2023-04-04T01:42:53.997Z,98690.25
2023-04-04T01:45:27.334Z,98688.56
2023-04-04T01:48:00.480Z,98692.56
2023-04-04T01:50:33.552Z,98693.94
2023-04-04T01:53:06.685Z,98689.75
2023-04-04T01:55:39.676Z,98695.91
2023-04-04T01:58:13.995Z,98685.50
2023-04-04T02:00:46.961Z,98684.16
2023-04-04T02:03:19.913Z,98691.34
2023-04-04T02:05:52.897Z,98684.72
2023-04-04T02:08:25.827Z,98690.06
2023-04-04T02:10:59.453Z,98696.53
2023-04-04T02:13:33.783Z,98699.44
2023-04-04T02:16:07.005Z,98698.22
2023-04-04T02:18:40.408Z,98699.53
2023-04-04T02:21:13.396Z,98701.16
2023-04-04T02:23:46.338Z,98700.59
2023-04-04T02:26:19.280Z,98695.91
2023-04-04T02:28:53.593Z,98688.94
2023-04-04T02:31:26.622Z,98689.63
2023-04-04T02:33:59.589Z,98685.75
2023-04-04T02:36:32.528Z,98682.00
2023-04-04T02:39:05.834Z,98694.03
2023-04-04T02:41:38.814Z,98690.78
2023-04-04T02:44:13.082Z,98687.97
2023-04-04T02:46:46.037Z,98689.97
2023-04-04T02:49:19.008Z,98686.22
2023-04-04T02:51:52.234Z,98695.19
2023-04-04T02:54:25.182Z,98688.44
2023-04-04T02:56:58.204Z,98693.59
2023-04-04T02:59:32.504Z,98691.63
2023-04-04T03:02:05.532Z,98692.00
2023-04-04T03:04:38.522Z,98689.13
2023-04-04T03:07:11.478Z,98694.16
2023-04-04T03:09:45.340Z,98685.88
2023-04-04T03:12:21.841Z,98691.28
2023-04-04T03:14:56.238Z,98690.22
2023-04-04T03:17:29.235Z,98690.56
2023-04-04T03:20:02.208Z,98682.16
2023-04-04T03:22:35.190Z,98682.69
2023-04-04T03:25:09.306Z,98677.59
2023-04-04T03:27:42.273Z,98674.22
2023-04-04T03:30:16.628Z,98678.16
2023-04-04T03:32:50.866Z,98678.56
2023-04-04T03:35:23.942Z,98678.06
2023-04-04T03:37:56.975Z,98676.22
2023-04-04T03:40:30.077Z,98678.00
2023-04-04T03:43:03.326Z,98678.53
2023-04-04T03:45:38.459Z,98679.78
2023-04-04T03:48:11.583Z,98679.22
2023-04-04T03:50:44.557Z,98677.63
2023-04-04T03:53:17.738Z,98682.19
2023-04-04T03:55:51.994Z,98679.53
2023-04-04T03:58:25.597Z,98679.00
2023-04-04T04:00:59.887Z,98686.13
2023-04-04T04:03:32.961Z,98680.56
2023-04-04T04:06:06.437Z,98696.66
2023-04-04T04:08:39.381Z,98691.00
2023-04-04T04:11:12.371Z,98689.22
2023-04-04T04:13:45.358Z,98686.16
2023-04-04T04:16:19.715Z,98679.84
2023-04-04T04:18:52.702Z,98679.28
2023-04-04T04:21:26.300Z,98685.78
2023-04-04T04:23:59.501Z,98673.78
2023-04-04T04:26:32.474Z,98682.75
2023-04-04T04:29:06.025Z,98677.38
2023-04-04T04:31:40.489Z,98680.47
2023-04-04T04:34:13.649Z,98679.38
2023-04-04T04:36:47.168Z,98687.09
2023-04-04T04:39:20.431Z,98678.50
2023-04-04T04:41:53.358Z,98675.41
2023-04-04T04:44:26.395Z,98679.69
2023-04-04T04:47:00.794Z,98681.47
2023-04-04T04:49:34.193Z,98687.03
2023-04-04T04:52:07.135Z,98689.38
2023-04-04T04:54:40.047Z,98688.88
2023-04-04T04:57:13.060Z,98683.13
2023-04-04T04:59:46.286Z,98692.44
2023-04-04T05:02:20.790Z,98687.06
2023-04-04T05:04:53.835Z,98685.81
2023-04-04T05:07:26.752Z,98698.53
2023-04-04T05:09:59.707Z,98694.06
2023-04-04T05:12:32.982Z,98689.56
2023-04-04T05:15:07.966Z,98701.03
2023-04-04T05:17:42.596Z,98692.47
2023-04-04T05:20:15.585Z,98701.41
2023-04-04T05:22:50.291Z,98711.06
2023-04-04T05:25:24.450Z,98704.97
2023-04-04T05:27:58.550Z,98702.25
2023-04-04T05:30:32.304Z,98701.34
2023-04-04T05:33:06.751Z,98695.63
2023-04-04T05:35:41.328Z,98699.88
2023-04-04T05:38:14.532Z,98704.53
2023-04-04T05:40:47.639Z,98697.88
2023-04-04T05:43:20.569Z,98697.44
2023-04-04T05:45:53.590Z,98695.50
2023-04-04T05:48:27.864Z,98695.91
2023-04-04T05:51:00.903Z,98696.56
2023-04-04T05:53:34.759Z,98691.22
2023-04-04T05:56:07.818Z,98698.28
2023-04-04T05:58:40.854Z,98697.69
2023-04-04T06:01:13.786Z,98697.78
2023-04-04T06:03:48.088Z,98692.19
2023-04-04T06:06:21.158Z,98692.31
2023-04-04T06:08:54.273Z,98696.59
2023-04-04T06:11:27.406Z,98701.38
2023-04-04T06:14:00.350Z,98690.38
2023-04-04T06:16:33.344Z,98695.41
2023-04-04T06:19:07.765Z,98698.56
2023-04-04T06:21:40.660Z,98695.59
2023-04-04T06:24:13.589Z,98693.94
2023-04-04T06:26:46.529Z,98689.97
2023-04-04T06:29:19.541Z,98681.75
2023-04-04T06:31:52.786Z,98686.75
2023-04-04T06:34:27.133Z,98678.31
2023-04-04T06:37:00.054Z,98683.78
2023-04-04T06:39:34.331Z,98677.59
2023-04-04T06:42:07.489Z,98676.19
2023-04-04T06:44:40.674Z,98674.75
2023-04-04T06:47:13.839Z,98679.66
2023-04-04T06:49:48.159Z,98677.56
2023-04-04T06:52:21.170Z,98669.13
2023-04-04T06:54:54.113Z,98675.03
2023-04-04T06:57:27.142Z,98683.06
2023-04-04T07:00:00.127Z,98679.06
2023-04-04T07:02:33.213Z,98673.41
2023-04-04T07:05:10.054Z,98677.50
2023-04-04T07:07:42.969Z,98684.09
2023-04-04T07:10:16.221Z,98680.09
2023-04-04T07:12:49.323Z,98671.66
2023-04-04T07:15:23.050Z,98664.66
2023-04-04T07:17:56.695Z,98669.13
2023-04-04T07:20:32.223Z,98662.06
2023-04-04T07:23:05.435Z,98661.97
2023-04-04T07:25:38.579Z,98669.63
2023-04-04T07:28:13.461Z,98664.31
2023-04-04T07:30:46.741Z,98676.91
2023-04-04T07:33:19.669Z,98674.22
2023-04-04T07:35:54.656Z,98669.00
2023-04-04T07:38:27.753Z,98679.66
2023-04-04T07:41:02.995Z,98673.09
2023-04-04T07:43:37.028Z,98685.63
2023-04-04T07:46:09.993Z,98687.34
2023-04-04T07:48:43.054Z,98673.81
2023-04-04T07:51:17.947Z,98670.38
2023-04-04T07:53:51.278Z,98664.34
2023-04-04T07:56:24.332Z,98673.31
2023-04-04T07:58:57.317Z,98672.56
2023-04-04T08:01:30.826Z,98675.59
2023-04-04T08:04:05.520Z,98679.94
2023-04-04T08:06:39.899Z,98668.00
2023-04-04T08:09:12.837Z,98674.34
2023-04-04T08:11:45.772Z,98672.47
2023-04-04T08:14:18.722Z,98666.59
2023-04-04T08:16:51.655Z,98674.41
2023-04-04T08:19:24.814Z,98671.53
2023-04-04T08:21:59.146Z,98670.28
2023-04-04T08:24:32.127Z,98666.56
2023-04-04T08:27:06.067Z,98673.19
2023-04-04T08:29:39.328Z,98658.59
2023-04-04T08:32:12.583Z,98668.13
2023-04-04T08:34:45.678Z,98671.53
2023-04-04T08:37:19.937Z,98673.41
2023-04-04T08:39:52.920Z,98664.91
2023-04-04T08:42:27.687Z,98668.41
2023-04-04T08:45:05.086Z,98667.19
2023-04-04T08:47:40.018Z,98661.56
2023-04-04T08:50:13.652Z,98659.38
2023-04-04T08:52:48.390Z,98669.25
2023-04-04T08:55:21.618Z,98677.97
2023-04-04T08:57:55.689Z,98656.78
2023-04-04T09:00:29.694Z,98670.78
2023-04-04T09:03:11.832Z,98655.94
2023-04-04T09:05:45.700Z,98654.66
2023-04-04T09:08:20.278Z,98662.00
2023-04-04T09:10:54.202Z,98658.81
2023-04-04T09:13:27.179Z,98655.50
2023-04-04T09:16:01.992Z,98670.00
2023-04-04T09:18:34.928Z,98653.31
2023-04-04T09:21:11.833Z,98661.38
2023-04-04T09:23:46.184Z,98657.16
2023-04-04T09:26:19.129Z,98660.84
2023-04-04T09:28:54.345Z,98668.59
2023-04-04T09:31:27.391Z,98663.03
2023-04-04T09:34:00.674Z,98661.81
2023-04-04T09:36:33.737Z,98659.19
2023-04-04T09:39:08.651Z,98662.06
2023-04-04T09:41:42.126Z,98662.47
2023-04-04T09:44:15.360Z,98662.19
2023-04-04T09:46:52.094Z,98668.25
2023-04-04T09:49:26.058Z,98662.59
2023-04-04T09:51:59.136Z,98669.31
2023-04-04T09:54:34.694Z,98668.50
2023-04-04T09:57:09.532Z,98664.16
2023-04-04T09:59:43.348Z,98661.28
2023-04-04T10:02:17.446Z,98671.28
2023-04-04T10:05:03.440Z,98668.00
2023-04-04T10:07:42.288Z,98670.28
2023-04-04T10:10:16.674Z,98667.00
2023-04-04T10:12:49.630Z,98675.19
2023-04-04T10:15:24.242Z,98654.44
2023-04-04T10:17:58.968Z,98671.78
2023-04-04T10:20:34.143Z,98656.56
2023-04-04T10:23:07.386Z,98658.94
2023-04-04T10:25:41.892Z,98657.00
2023-04-04T10:28:14.837Z,98650.53
2023-04-04T10:31:05.205Z,98654.09
2023-04-04T10:33:47.652Z,98648.69
2023-04-04T10:36:25.610Z,98644.63
2023-04-04T10:39:06.331Z,98650.31
2023-04-04T10:41:42.157Z,98644.88
2023-04-04T10:44:34.197Z,98646.38
2023-04-04T10:47:15.685Z,98635.47
2023-04-04T10:49:50.614Z,98644.34
2023-04-04T10:52:27.453Z,98634.41
2023-04-04T10:55:06.144Z,98635.19
2023-04-04T10:57:44.691Z,98637.31
2023-04-04T11:00:20.349Z,98625.31
2023-04-04T11:02:57.572Z,98637.38
2023-04-04T11:05:34.633Z,98619.59
2023-04-04T11:08:10.637Z,98629.78
2023-04-04T11:10:45.647Z,98631.16
2023-04-04T11:13:22.993Z,98623.13
2023-04-04T11:15:58.529Z,98615.69
2023-04-04T11:18:48.750Z,98623.56
2023-04-04T11:21:26.276Z,98620.31
2023-04-04T11:24:16.786Z,98608.78
2023-04-04T11:26:49.829Z,98602.09
2023-04-04T11:29:53.311Z,98609.41
2023-04-04T11:32:35.911Z,98601.34
2023-04-04T11:35:09.755Z,98609.22
2023-04-04T11:38:00.607Z,98607.41
2023-04-04T11:40:41.480Z,98621.19
2023-04-04T11:43:16.971Z,98617.06
2023-04-04T11:45:51.744Z,98609.94
2023-04-04T11:48:25.161Z,98612.16
2023-04-04T11:50:59.760Z,98610.75
2023-04-04T11:53:34.171Z,98613.53
2023-04-04T11:56:07.621Z,98610.25
2023-04-04T11:58:41.646Z,98600.03
2023-04-04T12:01:16.075Z,98601.53
2023-04-04T12:03:50.127Z,98601.88
2023-04-04T12:06:23.617Z,98602.88
2023-04-04T12:08:57.647Z,98596.81
2023-04-04T12:11:32.118Z,98581.75
2023-04-04T12:14:05.202Z,98602.63
2023-04-04T12:16:39.720Z,98594.63
2023-04-04T12:19:12.917Z,98597.88
2023-04-04T12:21:46.913Z,98593.34
2023-04-04T12:24:20.115Z,98588.69
2023-04-04T12:26:54.220Z,98582.53
2023-04-04T12:29:28.794Z,98579.34
2023-04-04T12:32:04.322Z,98579.38
2023-04-04T12:34:47.237Z,98568.31
2023-04-04T12:37:23.538Z,98578.53
2023-04-04T12:39:57.977Z,98580.72
2023-04-04T12:42:32.969Z,98575.63
2023-04-04T12:45:08.641Z,98569.94
2023-04-04T12:47:53.746Z,98570.13
2023-04-04T12:50:29.185Z,98577.31
2023-04-04T12:53:24.030Z,98572.63
2023-04-04T12:55:57.458Z,98556.13
2023-04-04T12:58:30.585Z,98555.91
2023-04-04T13:01:05.032Z,98556.56
2023-04-04T13:03:40.174Z,98555.31
2023-04-04T13:06:15.137Z,98555.66
2023-04-04T13:08:52.677Z,98553.78
2023-04-04T13:11:26.785Z,98547.78
2023-04-04T13:14:04.384Z,98543.59
2023-04-04T13:16:38.006Z,98547.66
2023-04-04T13:19:12.377Z,98540.94
2023-04-04T13:21:45.769Z,98547.31
2023-04-04T13:24:18.891Z,98539.16
2023-04-04T13:26:51.917Z,98539.91
2023-04-04T13:29:25.364Z,98548.59
2023-04-04T13:31:58.424Z,98534.59
2023-04-04T13:34:33.901Z,98538.69
2023-04-04T13:37:07.450Z,98535.19
2023-04-04T13:39:40.564Z,98530.81
2023-04-04T13:42:14.155Z,98527.50
2023-04-04T13:44:47.116Z,98526.50
2023-04-04T13:47:22.639Z,98514.25
2023-04-04T13:49:56.994Z,98519.63
2023-04-04T13:52:30.063Z,98521.53
2023-04-04T13:55:03.324Z,98519.31
2023-04-04T13:57:36.391Z,98525.41
2023-04-04T14:00:11.298Z,98517.53
2023-04-04T14:02:44.295Z,98520.63
2023-04-04T14:05:18.895Z,98517.19
2023-04-04T14:07:51.999Z,98515.38
2023-04-04T14:10:24.980Z,98507.00
2023-04-04T14:12:57.918Z,98508.00
2023-04-04T14:15:30.976Z,98504.81
2023-04-04T14:18:04.028Z,98500.38
2023-04-04T14:20:38.441Z,98512.44
2023-04-04T14:23:11.466Z,98509.44
2023-04-04T14:25:44.443Z,98498.38
2023-04-04T14:28:17.438Z,98498.78
2023-04-04T14:30:51.809Z,98505.53
2023-04-04T14:33:24.786Z,98501.03
2023-04-04T14:35:59.069Z,98514.75
2023-04-04T14:38:32.538Z,98505.22
2023-04-04T14:41:05.497Z,98510.88
2023-04-04T14:43:38.471Z,98514.09
2023-04-04T14:46:11.901Z,98505.72
2023-04-04T14:48:44.885Z,98512.47
2023-04-04T14:51:19.969Z,98499.88
2023-04-04T14:53:53.196Z,98501.22
2023-04-04T14:56:27.060Z,98508.50
2023-04-04T14:59:01.977Z,98505.97
2023-04-04T15:01:35.283Z,98498.75
2023-04-04T15:04:09.163Z,98506.00
2023-04-04T15:06:43.716Z,98500.41
2023-04-04T15:09:16.785Z,98511.22
2023-04-04T15:11:50.382Z,98502.22
2023-04-04T15:14:23.515Z,98498.13
2023-04-04T15:16:56.470Z,98486.78
2023-04-04T15:19:29.587Z,98487.13
2023-04-04T15:22:04.072Z,98501.25
2023-04-04T15:24:37.101Z,98483.31
2023-04-04T15:27:10.053Z,98495.00
2023-04-04T15:29:44.575Z,98491.72
2023-04-04T15:32:17.645Z,98500.91
2023-04-04T15:34:50.641Z,98487.25
2023-04-04T15:37:24.953Z,98485.03
2023-04-04T15:39:58.113Z,98489.91
2023-04-04T15:42:31.925Z,98492.81
2023-04-04T15:45:05.713Z,98485.88
2023-04-04T15:47:38.790Z,98484.84
2023-04-04T15:50:12.594Z,98482.59
2023-04-04T15:52:46.938Z,98489.13
2023-04-04T15:55:21.929Z,98478.22
2023-04-04T15:57:55.226Z,98487.25
2023-04-04T16:00:29.269Z,98487.75
2023-04-04T16:03:02.453Z,98500.13
2023-04-04T16:05:35.749Z,98488.56
2023-04-04T16:08:10.250Z,98477.75
2023-04-04T16:10:44.523Z,98483.06
2023-04-04T16:13:17.815Z,98478.34
2023-04-04T16:15:50.798Z,98479.03
2023-04-04T16:18:23.846Z,98471.34
2023-04-04T16:20:56.946Z,98468.53
2023-04-04T16:23:33.151Z,98468.22
2023-04-04T16:26:06.566Z,98472.91
2023-04-04T16:28:40.195Z,98478.00
2023-04-04T16:31:15.451Z,98477.88
2023-04-04T16:33:48.819Z,98478.72
2023-04-04T16:36:21.809Z,98473.34
2023-04-04T16:38:57.830Z,98472.53
2023-04-04T16:41:31.701Z,98475.94
2023-04-04T16:44:04.667Z,98471.34
2023-04-04T16:46:37.674Z,98464.66
2023-04-04T16:49:10.870Z,98468.53
2023-04-04T16:51:44.015Z,98467.84
2023-04-04T16:54:18.353Z,98456.63
2023-04-04T16:56:51.351Z,98463.31
2023-04-04T16:59:24.361Z,98457.16
2023-04-04T17:01:57.304Z,98460.13
2023-04-04T17:04:30.498Z,98471.66
2023-04-04T17:07:03.677Z,98477.38
2023-04-04T17:09:38.234Z,98466.41
2023-04-04T17:12:11.250Z,98463.84
2023-04-04T17:14:45.230Z,98464.09
2023-04-04T17:17:18.366Z,98469.00
2023-04-04T17:19:51.345Z,98465.09
2023-04-04T17:22:24.773Z,98461.81
2023-04-04T17:24:59.131Z,98456.75
2023-04-04T17:27:32.176Z,98456.25
2023-04-04T17:30:08.319Z,98448.88
2023-04-04T17:32:41.322Z,98450.75
2023-04-04T17:35:14.352Z,98447.09
2023-04-04T17:37:47.483Z,98457.13
2023-04-04T17:40:21.832Z,98454.47
2023-04-04T17:42:54.853Z,98462.47
2023-04-04T17:45:29.412Z,98465.34
2023-04-04T17:48:02.484Z,98458.88
2023-04-04T17:50:35.505Z,98454.44
2023-04-04T17:53:08.459Z,98459.38
2023-04-04T17:55:43.075Z,98465.72
2023-04-04T17:58:16.459Z,98467.88
2023-04-04T18:00:49.455Z,98465.59
2023-04-04T18:03:23.045Z,98459.28
2023-04-04T18:05:56.264Z,98463.81
2023-04-04T18:08:29.206Z,98467.09
2023-04-04T18:11:04.834Z,98460.84
2023-04-04T18:13:38.133Z,98470.34
2023-04-04T18:16:11.151Z,98469.78
2023-04-04T18:18:44.156Z,98472.88
2023-04-04T18:21:17.322Z,98479.91
2023-04-04T18:23:50.253Z,98476.75
2023-04-04T18:26:24.618Z,98475.03
2023-04-04T18:28:57.570Z,98474.06
2023-04-04T18:31:30.599Z,98482.16
2023-04-04T18:34:03.687Z,98478.06
2023-04-04T18:36:36.794Z,98476.38
2023-04-04T18:39:09.996Z,98475.44
2023-04-04T18:41:44.439Z,98482.06
2023-04-04T18:44:17.407Z,98482.31
2023-04-04T18:46:50.402Z,98479.97
2023-04-04T18:49:23.402Z,98476.44
2023-04-04T18:51:56.416Z,98475.25
2023-04-04T18:54:29.359Z,98483.09
2023-04-04T18:57:04.122Z,98486.69
2023-04-04T18:59:37.043Z,98485.47
2023-04-04T19:02:10.001Z,98485.41
2023-04-04T19:04:44.602Z,98490.38
2023-04-04T19:07:19.707Z,98489.63
2023-04-04T19:09:52.816Z,98489.00
2023-04-04T19:12:27.087Z,98494.47
2023-04-04T19:15:02.157Z,98487.69
2023-04-04T19:17:36.145Z,98497.81
2023-04-04T19:20:10.554Z,98494.00
2023-04-04T19:22:43.514Z,98494.91
2023-04-04T19:25:16.945Z,98502.66
2023-04-04T19:27:51.271Z,98492.91
2023-04-04T19:30:43.130Z,98504.50
2023-04-04T19:33:18.844Z,98503.63
2023-04-04T19:35:55.621Z,98510.63
2023-04-04T19:38:30.779Z,98506.94
2023-04-04T19:41:09.395Z,98517.47
2023-04-04T19:43:46.085Z,98519.72
2023-04-04T19:46:27.217Z,98517.66
2023-04-04T19:49:01.818Z,98518.84
2023-04-04T19:51:50.279Z,98519.03
2023-04-04T19:54:28.083Z,98522.59
2023-04-04T19:57:03.608Z,98523.66
2023-04-04T20:00:05.005Z,98523.78
2023-04-04T20:02:57.771Z,98530.50
2023-04-04T20:06:02.904Z,98528.72
2023-04-04T20:08:46.554Z,98529.78
2023-04-04T20:11:23.700Z,98525.31
2023-04-04T20:13:57.973Z,98518.63
2023-04-04T20:16:33.284Z,98525.91
2023-04-04T20:19:08.150Z,98529.00
2023-04-04T20:21:41.728Z,98531.63
2023-04-04T20:24:18.489Z,98533.25
2023-04-04T20:26:54.828Z,98535.22
2023-04-04T20:29:30.288Z,98534.47
2023-04-04T20:32:06.449Z,98534.63
2023-04-04T20:34:45.451Z,98534.88
2023-04-04T20:37:21.888Z,98541.38
2023-04-04T20:39:57.011Z,98540.47
2023-04-04T20:42:40.512Z,98547.91
2023-04-04T20:45:38.353Z,98542.25
2023-04-04T20:48:35.723Z,98539.84
2023-04-04T20:51:23.743Z,98544.38
2023-04-04T20:53:59.528Z,98541.13
2023-04-04T20:56:57.172Z,98546.34
2023-04-04T20:59:34.244Z,98544.97
2023-04-04T21:02:15.350Z,98545.56
2023-04-04T21:04:52.126Z,98549.28
2023-04-04T21:07:42.529Z,98547.91
2023-04-04T21:10:46.981Z,98546.09
2023-04-04T21:13:28.334Z,98543.59
2023-04-04T21:16:03.116Z,98548.22
2023-04-04T21:18:37.317Z,98542.72
2023-04-04T21:21:18.573Z,98544.47
2023-04-04T21:23:54.110Z,98533.69
2023-04-04T21:26:33.822Z,98542.63
2023-04-04T21:29:08.595Z,98542.88
2023-04-04T21:31:43.174Z,98542.88
2023-04-04T21:34:19.696Z,98535.44
2023-04-04T21:37:00.908Z,98537.81
2023-04-04T21:39:34.984Z,98534.97
2023-04-04T21:42:08.993Z,98541.78
2023-04-04T21:44:42.300Z,98544.16
2023-04-04T21:47:15.868Z,98540.69
2023-04-04T21:49:48.845Z,98541.59
2023-04-04T21:52:23.113Z,98540.78
2023-04-04T21:54:56.065Z,98537.13
2023-04-04T21:57:29.071Z,98542.91
2023-04-04T22:00:02.021Z,98545.69
2023-04-04T22:02:35.010Z,98546.25
2023-04-04T22:05:09.188Z,98541.47
2023-04-04T22:07:43.514Z,98551.53
2023-04-04T22:10:18.831Z,98543.50
2023-04-04T22:12:51.917Z,98547.28
2023-04-04T22:15:29.275Z,98549.28
2023-04-04T22:18:04.434Z,98549.72
2023-04-04T22:20:37.378Z,98548.41
2023-04-04T22:23:15.476Z,98544.50
2023-04-04T22:25:48.568Z,98539.47
2023-04-04T22:28:24.930Z,98542.00
2023-04-04T22:30:57.934Z,98541.44
2023-04-04T22:33:31.194Z,98547.78
2023-04-04T22:36:05.376Z,98545.13
2023-04-04T22:38:42.338Z,98539.91
2023-04-04T22:41:15.522Z,98537.06
2023-04-04T22:43:48.486Z,98536.28
2023-04-04T22:46:21.514Z,98534.66
2023-04-04T22:49:04.299Z,98536.91
2023-04-04T22:51:43.937Z,98540.16
2023-04-04T22:54:18.668Z,98528.94
2023-04-04T22:56:51.634Z,98535.75
2023-04-04T22:59:24.738Z,98535.63
2023-04-04T23:01:57.748Z,98528.50
2023-04-04T23:04:30.726Z,98532.53
2023-04-04T23:07:04.285Z,98537.16
2023-04-04T23:09:38.606Z,98531.88
2023-04-04T23:12:11.551Z,98530.81
2023-04-04T23:14:44.993Z,98529.03
2023-04-04T23:17:17.964Z,98520.38
2023-04-04T23:19:50.915Z,98523.19
2023-04-04T23:22:23.931Z,98522.88
2023-04-04T23:24:58.204Z,98516.13
2023-04-04T23:27:31.520Z,98523.81
2023-04-04T23:30:05.485Z,98519.63
2023-04-04T23:32:38.517Z,98517.75
2023-04-04T23:35:11.548Z,98515.44
2023-04-04T23:37:44.497Z,98518.44
2023-04-04T23:40:19.381Z,98521.28
2023-04-04T23:42:53.292Z,98509.28
2023-04-04T23:45:27.337Z,98517.34
2023-04-04T23:48:00.580Z,98510.16
2023-04-04T23:50:33.645Z,98502.16
2023-04-04T23:53:06.586Z,98504.66
2023-04-04T23:55:41.022Z,98501.25
2023-04-04T23:58:13.964Z,98495.97
